sensor_id;sensor_type;location;lat;lon;timestamp;P1;durP1;ratioP1;P2;durP2;ratioP2
16314;SDS011;8266;52.150;4.768;2024-02-23T00:00:40;7.38;;;1.35;;
16314;SDS011;8266;52.150;4.768;2024-02-23T00:03:07;7.35;;;1.83;;
16314;SDS011;8266;52.150;4.768;2024-02-23T00:05:35;6.35;;;1.80;;
16314;SDS011;8266;52.150;4.768;2024-02-23T00:08:05;8.35;;;1.90;;
16314;SDS011;8266;52.150;4.768;2024-02-23T00:10:34;8.77;;;2.08;;
16314;SDS011;8266;52.150;4.768;2024-02-23T00:13:01;7.13;;;1.70;;
16314;SDS011;8266;52.150;4.768;2024-02-23T00:15:29;8.48;;;2.00;;
16314;SDS011;8266;52.150;4.768;2024-02-23T00:17:57;7.32;;;1.70;;
16314;SDS011;8266;52.150;4.768;2024-02-23T00:20:25;11.63;;;2.17;;
16314;SDS011;8266;52.150;4.768;2024-02-23T00:22:52;8.43;;;1.88;;
16314;SDS011;8266;52.150;4.768;2024-02-23T00:25:21;9.82;;;1.95;;
16314;SDS011;8266;52.150;4.768;2024-02-23T00:27:49;6.03;;;1.75;;
16314;SDS011;8266;52.150;4.768;2024-02-23T00:30:17;8.30;;;1.75;;
16314;SDS011;8266;52.150;4.768;2024-02-23T00:32:44;7.97;;;1.88;;
16314;SDS011;8266;52.150;4.768;2024-02-23T00:35:12;4.65;;;1.60;;
16314;SDS011;8266;52.150;4.768;2024-02-23T00:37:39;10.10;;;2.00;;
16314;SDS011;8266;52.150;4.768;2024-02-23T00:40:08;9.30;;;1.88;;
16314;SDS011;8266;52.150;4.768;2024-02-23T00:42:38;7.47;;;1.60;;
16314;SDS011;8266;52.150;4.768;2024-02-23T00:45:05;11.13;;;2.33;;
16314;SDS011;8266;52.150;4.768;2024-02-23T00:47:33;9.05;;;1.92;;
16314;SDS011;8266;52.150;4.768;2024-02-23T00:50:02;8.90;;;1.70;;
16314;SDS011;8266;52.150;4.768;2024-02-23T00:52:32;8.55;;;1.60;;
16314;SDS011;8266;52.150;4.768;2024-02-23T00:55:03;10.57;;;2.15;;
16314;SDS011;8266;52.150;4.768;2024-02-23T00:57:30;4.20;;;1.27;;
16314;SDS011;8266;52.150;4.768;2024-02-23T00:59:59;8.45;;;1.98;;
16314;SDS011;8266;52.150;4.768;2024-02-23T01:02:26;7.03;;;1.63;;
16314;SDS011;8266;52.150;4.768;2024-02-23T01:04:53;8.57;;;1.60;;
16314;SDS011;8266;52.150;4.768;2024-02-23T01:07:24;4.35;;;1.92;;
16314;SDS011;8266;52.150;4.768;2024-02-23T01:09:51;8.10;;;1.75;;
16314;SDS011;8266;52.150;4.768;2024-02-23T01:12:18;6.15;;;1.67;;
16314;SDS011;8266;52.150;4.768;2024-02-23T01:14:47;7.15;;;1.40;;
16314;SDS011;8266;52.150;4.768;2024-02-23T01:17:15;6.85;;;1.80;;
16314;SDS011;8266;52.150;4.768;2024-02-23T01:19:43;7.82;;;1.50;;
16314;SDS011;8266;52.150;4.768;2024-02-23T01:22:10;13.52;;;1.98;;
16314;SDS011;8266;52.150;4.768;2024-02-23T01:24:38;7.28;;;1.88;;
16314;SDS011;8266;52.150;4.768;2024-02-23T01:27:05;6.82;;;1.50;;
16314;SDS011;8266;52.150;4.768;2024-02-23T01:29:33;7.50;;;1.65;;
16314;SDS011;8266;52.150;4.768;2024-02-23T01:32:00;6.05;;;2.05;;
16314;SDS011;8266;52.150;4.768;2024-02-23T01:34:29;6.35;;;2.08;;
16314;SDS011;8266;52.150;4.768;2024-02-23T01:36:56;4.45;;;1.48;;
16314;SDS011;8266;52.150;4.768;2024-02-23T01:39:23;4.53;;;1.30;;
16314;SDS011;8266;52.150;4.768;2024-02-23T01:41:51;9.65;;;2.15;;
16314;SDS011;8266;52.150;4.768;2024-02-23T01:44:20;8.55;;;1.73;;
16314;SDS011;8266;52.150;4.768;2024-02-23T01:46:49;5.78;;;1.30;;
16314;SDS011;8266;52.150;4.768;2024-02-23T01:49:16;7.03;;;1.55;;
16314;SDS011;8266;52.150;4.768;2024-02-23T01:51:45;6.90;;;1.23;;
16314;SDS011;8266;52.150;4.768;2024-02-23T01:54:12;5.10;;;1.40;;
16314;SDS011;8266;52.150;4.768;2024-02-23T01:56:40;8.50;;;2.20;;
16314;SDS011;8266;52.150;4.768;2024-02-23T01:59:10;5.85;;;1.17;;
16314;SDS011;8266;52.150;4.768;2024-02-23T02:01:38;8.57;;;1.60;;
16314;SDS011;8266;52.150;4.768;2024-02-23T02:04:08;4.45;;;1.10;;
16314;SDS011;8266;52.150;4.768;2024-02-23T02:06:35;7.40;;;1.77;;
16314;SDS011;8266;52.150;4.768;2024-02-23T02:09:04;3.70;;;1.13;;
16314;SDS011;8266;52.150;4.768;2024-02-23T02:11:31;3.97;;;1.83;;
16314;SDS011;8266;52.150;4.768;2024-02-23T02:14:01;6.47;;;2.05;;
16314;SDS011;8266;52.150;4.768;2024-02-23T02:16:28;6.78;;;1.23;;
16314;SDS011;8266;52.150;4.768;2024-02-23T02:18:56;6.47;;;1.40;;
16314;SDS011;8266;52.150;4.768;2024-02-23T02:21:23;8.32;;;1.67;;
16314;SDS011;8266;52.150;4.768;2024-02-23T02:23:51;6.85;;;1.48;;
16314;SDS011;8266;52.150;4.768;2024-02-23T02:26:20;8.18;;;1.30;;
16314;SDS011;8266;52.150;4.768;2024-02-23T02:28:47;6.13;;;1.60;;
16314;SDS011;8266;52.150;4.768;2024-02-23T02:31:14;6.43;;;1.17;;
16314;SDS011;8266;52.150;4.768;2024-02-23T02:33:41;7.95;;;1.60;;
16314;SDS011;8266;52.150;4.768;2024-02-23T02:36:09;9.85;;;1.63;;
16314;SDS011;8266;52.150;4.768;2024-02-23T02:38:36;3.92;;;1.13;;
16314;SDS011;8266;52.150;4.768;2024-02-23T02:41:04;6.15;;;1.35;;
16314;SDS011;8266;52.150;4.768;2024-02-23T02:43:33;6.03;;;1.40;;
16314;SDS011;8266;52.150;4.768;2024-02-23T02:46:00;5.40;;;1.48;;
16314;SDS011;8266;52.150;4.768;2024-02-23T02:48:27;6.85;;;1.40;;
16314;SDS011;8266;52.150;4.768;2024-02-23T02:50:55;8.43;;;1.88;;
16314;SDS011;8266;52.150;4.768;2024-02-23T02:53:22;4.75;;;1.48;;
16314;SDS011;8266;52.150;4.768;2024-02-23T02:55:49;6.38;;;1.35;;
16314;SDS011;8266;52.150;4.768;2024-02-23T02:58:16;5.35;;;1.30;;
16314;SDS011;8266;52.150;4.768;2024-02-23T03:00:45;7.97;;;1.60;;
16314;SDS011;8266;52.150;4.768;2024-02-23T03:03:13;6.80;;;1.55;;
16314;SDS011;8266;52.150;4.768;2024-02-23T03:05:40;6.47;;;1.52;;
16314;SDS011;8266;52.150;4.768;2024-02-23T03:08:07;6.93;;;1.38;;
16314;SDS011;8266;52.150;4.768;2024-02-23T03:10:35;8.77;;;2.17;;
16314;SDS011;8266;52.150;4.768;2024-02-23T03:13:02;7.30;;;2.35;;
16314;SDS011;8266;52.150;4.768;2024-02-23T03:15:30;8.98;;;1.73;;
16314;SDS011;8266;52.150;4.768;2024-02-23T03:17:58;7.85;;;1.58;;
16314;SDS011;8266;52.150;4.768;2024-02-23T03:20:26;4.55;;;1.15;;
16314;SDS011;8266;52.150;4.768;2024-02-23T03:22:54;5.20;;;1.40;;
16314;SDS011;8266;52.150;4.768;2024-02-23T03:25:21;4.55;;;1.67;;
16314;SDS011;8266;52.150;4.768;2024-02-23T03:27:48;8.95;;;1.80;;
16314;SDS011;8266;52.150;4.768;2024-02-23T03:30:15;6.53;;;1.50;;
16314;SDS011;8266;52.150;4.768;2024-02-23T03:32:42;5.63;;;1.27;;
16314;SDS011;8266;52.150;4.768;2024-02-23T03:35:13;6.53;;;1.55;;
16314;SDS011;8266;52.150;4.768;2024-02-23T03:37:40;4.55;;;1.15;;
16314;SDS011;8266;52.150;4.768;2024-02-23T03:40:08;3.22;;;1.17;;
16314;SDS011;8266;52.150;4.768;2024-02-23T03:42:36;5.85;;;1.27;;
16314;SDS011;8266;52.150;4.768;2024-02-23T03:45:03;5.75;;;1.52;;
16314;SDS011;8266;52.150;4.768;2024-02-23T03:47:31;6.75;;;1.58;;
16314;SDS011;8266;52.150;4.768;2024-02-23T03:49:58;4.93;;;1.13;;
16314;SDS011;8266;52.150;4.768;2024-02-23T03:52:28;6.20;;;1.42;;
16314;SDS011;8266;52.150;4.768;2024-02-23T03:54:55;6.97;;;1.40;;
16314;SDS011;8266;52.150;4.768;2024-02-23T03:57:22;4.32;;;1.30;;
16314;SDS011;8266;52.150;4.768;2024-02-23T03:59:53;5.30;;;1.65;;
16314;SDS011;8266;52.150;4.768;2024-02-23T04:02:21;6.13;;;1.20;;
16314;SDS011;8266;52.150;4.768;2024-02-23T04:04:48;3.53;;;1.50;;
16314;SDS011;8266;52.150;4.768;2024-02-23T04:07:15;6.18;;;1.45;;
16314;SDS011;8266;52.150;4.768;2024-02-23T04:09:44;6.32;;;1.85;;
16314;SDS011;8266;52.150;4.768;2024-02-23T04:12:17;8.57;;;1.17;;
16314;SDS011;8266;52.150;4.768;2024-02-23T04:14:45;5.85;;;1.58;;
16314;SDS011;8266;52.150;4.768;2024-02-23T04:17:13;6.70;;;1.15;;
16314;SDS011;8266;52.150;4.768;2024-02-23T04:19:41;7.15;;;1.83;;
16314;SDS011;8266;52.150;4.768;2024-02-23T04:22:09;8.05;;;1.75;;
16314;SDS011;8266;52.150;4.768;2024-02-23T04:24:37;6.40;;;1.50;;
16314;SDS011;8266;52.150;4.768;2024-02-23T04:27:07;5.40;;;1.40;;
16314;SDS011;8266;52.150;4.768;2024-02-23T04:29:35;5.88;;;1.55;;
16314;SDS011;8266;52.150;4.768;2024-02-23T04:32:02;6.93;;;1.65;;
16314;SDS011;8266;52.150;4.768;2024-02-23T04:34:30;7.88;;;1.85;;
16314;SDS011;8266;52.150;4.768;2024-02-23T04:36:57;5.78;;;1.42;;
16314;SDS011;8266;52.150;4.768;2024-02-23T04:39:26;10.30;;;1.40;;
16314;SDS011;8266;52.150;4.768;2024-02-23T04:41:53;5.45;;;1.42;;
16314;SDS011;8266;52.150;4.768;2024-02-23T04:44:22;6.55;;;1.48;;
16314;SDS011;8266;52.150;4.768;2024-02-23T04:46:49;5.90;;;2.15;;
16314;SDS011;8266;52.150;4.768;2024-02-23T04:49:16;9.63;;;1.60;;
16314;SDS011;8266;52.150;4.768;2024-02-23T04:51:45;7.53;;;1.85;;
16314;SDS011;8266;52.150;4.768;2024-02-23T04:54:12;5.82;;;1.48;;
16314;SDS011;8266;52.150;4.768;2024-02-23T04:56:40;5.55;;;1.52;;
16314;SDS011;8266;52.150;4.768;2024-02-23T04:59:07;8.63;;;1.40;;
16314;SDS011;8266;52.150;4.768;2024-02-23T05:01:36;6.57;;;1.85;;
16314;SDS011;8266;52.150;4.768;2024-02-23T05:04:03;3.92;;;1.90;;
16314;SDS011;8266;52.150;4.768;2024-02-23T05:06:31;4.70;;;1.80;;
16314;SDS011;8266;52.150;4.768;2024-02-23T05:09:00;7.53;;;2.03;;
16314;SDS011;8266;52.150;4.768;2024-02-23T05:11:28;10.20;;;1.77;;
16314;SDS011;8266;52.150;4.768;2024-02-23T05:13:56;4.88;;;1.60;;
16314;SDS011;8266;52.150;4.768;2024-02-23T05:16:23;4.97;;;1.30;;
16314;SDS011;8266;52.150;4.768;2024-02-23T05:18:52;5.22;;;1.40;;
16314;SDS011;8266;52.150;4.768;2024-02-23T05:21:19;6.25;;;1.65;;
16314;SDS011;8266;52.150;4.768;2024-02-23T05:23:46;5.00;;;1.48;;
16314;SDS011;8266;52.150;4.768;2024-02-23T05:26:13;7.60;;;1.70;;
16314;SDS011;8266;52.150;4.768;2024-02-23T05:28:40;6.50;;;2.00;;
16314;SDS011;8266;52.150;4.768;2024-02-23T05:31:09;4.65;;;1.10;;
16314;SDS011;8266;52.150;4.768;2024-02-23T05:33:36;6.10;;;1.48;;
16314;SDS011;8266;52.150;4.768;2024-02-23T05:36:06;6.95;;;1.50;;
16314;SDS011;8266;52.150;4.768;2024-02-23T05:38:33;5.40;;;1.50;;
16314;SDS011;8266;52.150;4.768;2024-02-23T05:41:00;1.75;;;1.20;;
16314;SDS011;8266;52.150;4.768;2024-02-23T05:43:27;4.97;;;1.55;;
16314;SDS011;8266;52.150;4.768;2024-02-23T05:45:55;3.75;;;1.63;;
16314;SDS011;8266;52.150;4.768;2024-02-23T05:48:23;4.55;;;1.52;;
16314;SDS011;8266;52.150;4.768;2024-02-23T05:50:50;6.88;;;1.67;;
16314;SDS011;8266;52.150;4.768;2024-02-23T05:53:19;6.30;;;2.20;;
16314;SDS011;8266;52.150;4.768;2024-02-23T05:55:46;8.00;;;2.03;;
16314;SDS011;8266;52.150;4.768;2024-02-23T05:58:13;7.28;;;1.80;;
16314;SDS011;8266;52.150;4.768;2024-02-23T06:00:41;4.25;;;1.67;;
16314;SDS011;8266;52.150;4.768;2024-02-23T06:03:08;5.43;;;1.67;;
16314;SDS011;8266;52.150;4.768;2024-02-23T06:05:36;5.57;;;1.73;;
16314;SDS011;8266;52.150;4.768;2024-02-23T06:08:03;5.05;;;1.98;;
16314;SDS011;8266;52.150;4.768;2024-02-23T06:10:32;5.50;;;2.50;;
16314;SDS011;8266;52.150;4.768;2024-02-23T06:13:00;6.75;;;2.00;;
16314;SDS011;8266;52.150;4.768;2024-02-23T06:15:27;6.13;;;1.95;;
16314;SDS011;8266;52.150;4.768;2024-02-23T06:17:54;7.22;;;2.28;;
16314;SDS011;8266;52.150;4.768;2024-02-23T06:20:21;3.85;;;1.80;;
16314;SDS011;8266;52.150;4.768;2024-02-23T06:22:48;4.53;;;1.90;;
16314;SDS011;8266;52.150;4.768;2024-02-23T06:25:15;7.40;;;2.28;;
16314;SDS011;8266;52.150;4.768;2024-02-23T06:27:44;7.57;;;2.30;;
16314;SDS011;8266;52.150;4.768;2024-02-23T06:30:11;2.72;;;1.85;;
16314;SDS011;8266;52.150;4.768;2024-02-23T06:32:39;10.15;;;2.70;;
16314;SDS011;8266;52.150;4.768;2024-02-23T06:35:06;3.95;;;1.70;;
16314;SDS011;8266;52.150;4.768;2024-02-23T06:37:36;3.03;;;1.60;;
16314;SDS011;8266;52.150;4.768;2024-02-23T06:40:04;6.53;;;1.98;;
16314;SDS011;8266;52.150;4.768;2024-02-23T06:42:32;7.38;;;2.38;;
16314;SDS011;8266;52.150;4.768;2024-02-23T06:45:01;3.35;;;2.03;;
16314;SDS011;8266;52.150;4.768;2024-02-23T06:47:30;6.28;;;2.63;;
16314;SDS011;8266;52.150;4.768;2024-02-23T06:49:57;8.57;;;2.72;;
16314;SDS011;8266;52.150;4.768;2024-02-23T06:52:24;5.47;;;2.15;;
16314;SDS011;8266;52.150;4.768;2024-02-23T06:54:52;4.45;;;2.67;;
16314;SDS011;8266;52.150;4.768;2024-02-23T06:57:19;8.57;;;3.28;;
16314;SDS011;8266;52.150;4.768;2024-02-23T06:59:47;7.25;;;3.20;;
16314;SDS011;8266;52.150;4.768;2024-02-23T07:02:16;5.13;;;2.95;;
16314;SDS011;8266;52.150;4.768;2024-02-23T07:04:43;6.97;;;3.25;;
16314;SDS011;8266;52.150;4.768;2024-02-23T07:07:11;7.57;;;3.22;;
16314;SDS011;8266;52.150;4.768;2024-02-23T07:09:38;5.95;;;3.05;;
16314;SDS011;8266;52.150;4.768;2024-02-23T07:12:05;4.10;;;2.75;;
16314;SDS011;8266;52.150;4.768;2024-02-23T07:14:35;5.03;;;2.20;;
16314;SDS011;8266;52.150;4.768;2024-02-23T07:17:02;5.25;;;2.60;;
16314;SDS011;8266;52.150;4.768;2024-02-23T07:19:31;3.70;;;1.98;;
16314;SDS011;8266;52.150;4.768;2024-02-23T07:22:00;6.72;;;2.45;;
16314;SDS011;8266;52.150;4.768;2024-02-23T07:24:29;3.03;;;1.92;;
16314;SDS011;8266;52.150;4.768;2024-02-23T07:26:57;6.93;;;2.55;;
16314;SDS011;8266;52.150;4.768;2024-02-23T07:29:24;4.40;;;1.90;;
16314;SDS011;8266;52.150;4.768;2024-02-23T07:31:52;5.05;;;2.17;;
16314;SDS011;8266;52.150;4.768;2024-02-23T07:34:19;5.70;;;1.90;;
16314;SDS011;8266;52.150;4.768;2024-02-23T07:36:51;4.63;;;1.98;;
16314;SDS011;8266;52.150;4.768;2024-02-23T07:39:19;5.38;;;1.70;;
16314;SDS011;8266;52.150;4.768;2024-02-23T07:41:49;2.88;;;1.58;;
16314;SDS011;8266;52.150;4.768;2024-02-23T07:44:16;3.88;;;1.75;;
16314;SDS011;8266;52.150;4.768;2024-02-23T07:46:44;5.15;;;1.70;;
16314;SDS011;8266;52.150;4.768;2024-02-23T07:49:11;5.28;;;1.80;;
16314;SDS011;8266;52.150;4.768;2024-02-23T07:51:38;3.53;;;1.80;;
16314;SDS011;8266;52.150;4.768;2024-02-23T07:54:06;6.15;;;2.05;;
16314;SDS011;8266;52.150;4.768;2024-02-23T07:56:34;4.72;;;1.58;;
16314;SDS011;8266;52.150;4.768;2024-02-23T07:59:01;7.97;;;2.00;;
16314;SDS011;8266;52.150;4.768;2024-02-23T08:01:28;6.70;;;2.30;;
16314;SDS011;8266;52.150;4.768;2024-02-23T08:03:56;2.50;;;1.52;;
16314;SDS011;8266;52.150;4.768;2024-02-23T08:06:23;6.63;;;1.80;;
16314;SDS011;8266;52.150;4.768;2024-02-23T08:08:51;3.83;;;1.40;;
16314;SDS011;8266;52.150;4.768;2024-02-23T08:11:20;6.35;;;2.00;;
16314;SDS011;8266;52.150;4.768;2024-02-23T08:13:47;5.60;;;1.75;;
16314;SDS011;8266;52.150;4.768;2024-02-23T08:16:15;5.10;;;1.98;;
16314;SDS011;8266;52.150;4.768;2024-02-23T08:18:43;4.72;;;1.60;;
16314;SDS011;8266;52.150;4.768;2024-02-23T08:21:10;5.25;;;1.83;;
16314;SDS011;8266;52.150;4.768;2024-02-23T08:23:38;5.68;;;2.05;;
16314;SDS011;8266;52.150;4.768;2024-02-23T08:26:06;3.47;;;1.55;;
16314;SDS011;8266;52.150;4.768;2024-02-23T08:28:36;3.80;;;1.50;;
16314;SDS011;8266;52.150;4.768;2024-02-23T08:31:04;5.07;;;1.83;;
16314;SDS011;8266;52.150;4.768;2024-02-23T08:33:31;3.95;;;2.00;;
16314;SDS011;8266;52.150;4.768;2024-02-23T08:35:58;6.22;;;2.00;;
16314;SDS011;8266;52.150;4.768;2024-02-23T08:38:27;5.35;;;2.08;;
16314;SDS011;8266;52.150;4.768;2024-02-23T08:40:54;6.85;;;1.90;;
16314;SDS011;8266;52.150;4.768;2024-02-23T08:43:21;4.90;;;2.08;;
16314;SDS011;8266;52.150;4.768;2024-02-23T08:45:50;6.22;;;1.70;;
16314;SDS011;8266;52.150;4.768;2024-02-23T08:48:18;4.75;;;1.77;;
16314;SDS011;8266;52.150;4.768;2024-02-23T08:50:45;8.15;;;2.33;;
16314;SDS011;8266;52.150;4.768;2024-02-23T08:53:13;4.40;;;1.60;;
16314;SDS011;8266;52.150;4.768;2024-02-23T08:55:40;2.58;;;1.17;;
16314;SDS011;8266;52.150;4.768;2024-02-23T08:58:07;5.93;;;1.38;;
16314;SDS011;8266;52.150;4.768;2024-02-23T09:00:34;5.22;;;1.30;;
16314;SDS011;8266;52.150;4.768;2024-02-23T09:03:05;4.93;;;1.65;;
16314;SDS011;8266;52.150;4.768;2024-02-23T09:05:32;4.45;;;1.52;;
16314;SDS011;8266;52.150;4.768;2024-02-23T09:07:59;3.65;;;1.77;;
16314;SDS011;8266;52.150;4.768;2024-02-23T09:10:26;3.05;;;1.25;;
16314;SDS011;8266;52.150;4.768;2024-02-23T09:12:53;4.22;;;1.73;;
16314;SDS011;8266;52.150;4.768;2024-02-23T09:15:20;4.28;;;1.50;;
16314;SDS011;8266;52.150;4.768;2024-02-23T09:17:47;5.25;;;1.48;;
16314;SDS011;8266;52.150;4.768;2024-02-23T09:20:16;5.40;;;1.85;;
16314;SDS011;8266;52.150;4.768;2024-02-23T09:22:44;4.28;;;1.80;;
16314;SDS011;8266;52.150;4.768;2024-02-23T09:25:11;6.68;;;1.60;;
16314;SDS011;8266;52.150;4.768;2024-02-23T09:27:38;5.45;;;1.70;;
16314;SDS011;8266;52.150;4.768;2024-02-23T09:30:09;5.93;;;1.25;;
16314;SDS011;8266;52.150;4.768;2024-02-23T09:32:37;4.22;;;1.40;;
16314;SDS011;8266;52.150;4.768;2024-02-23T09:35:04;7.35;;;2.13;;
16314;SDS011;8266;52.150;4.768;2024-02-23T09:37:34;4.35;;;1.45;;
16314;SDS011;8266;52.150;4.768;2024-02-23T09:40:01;8.82;;;1.60;;
16314;SDS011;8266;52.150;4.768;2024-02-23T09:42:28;3.88;;;1.40;;
16314;SDS011;8266;52.150;4.768;2024-02-23T09:44:58;3.97;;;1.73;;
16314;SDS011;8266;52.150;4.768;2024-02-23T09:47:26;2.35;;;1.55;;
16314;SDS011;8266;52.150;4.768;2024-02-23T09:49:54;3.17;;;1.55;;
16314;SDS011;8266;52.150;4.768;2024-02-23T09:52:22;2.85;;;1.42;;
16314;SDS011;8266;52.150;4.768;2024-02-23T09:54:50;3.47;;;1.30;;
16314;SDS011;8266;52.150;4.768;2024-02-23T09:57:18;3.55;;;1.25;;
16314;SDS011;8266;52.150;4.768;2024-02-23T09:59:46;5.18;;;1.75;;
16314;SDS011;8266;52.150;4.768;2024-02-23T10:02:15;4.03;;;1.92;;
16314;SDS011;8266;52.150;4.768;2024-02-23T10:04:43;4.72;;;1.52;;
16314;SDS011;8266;52.150;4.768;2024-02-23T10:07:13;8.38;;;2.03;;
16314;SDS011;8266;52.150;4.768;2024-02-23T10:09:42;3.42;;;1.73;;
16314;SDS011;8266;52.150;4.768;2024-02-23T10:12:10;8.63;;;2.40;;
16314;SDS011;8266;52.150;4.768;2024-02-23T10:14:37;6.18;;;1.80;;
16314;SDS011;8266;52.150;4.768;2024-02-23T10:17:07;3.35;;;1.75;;
16314;SDS011;8266;52.150;4.768;2024-02-23T10:19:34;6.10;;;1.77;;
16314;SDS011;8266;52.150;4.768;2024-02-23T10:22:05;6.93;;;1.80;;
16314;SDS011;8266;52.150;4.768;2024-02-23T10:24:32;7.25;;;1.80;;
16314;SDS011;8266;52.150;4.768;2024-02-23T10:27:03;6.82;;;1.63;;
16314;SDS011;8266;52.150;4.768;2024-02-23T10:29:34;4.88;;;1.50;;
16314;SDS011;8266;52.150;4.768;2024-02-23T10:32:01;6.32;;;1.60;;
16314;SDS011;8266;52.150;4.768;2024-02-23T10:34:29;3.10;;;1.30;;
16314;SDS011;8266;52.150;4.768;2024-02-23T10:37:00;5.05;;;1.40;;
16314;SDS011;8266;52.150;4.768;2024-02-23T10:39:30;5.78;;;1.55;;
16314;SDS011;8266;52.150;4.768;2024-02-23T10:42:02;4.40;;;1.55;;
16314;SDS011;8266;52.150;4.768;2024-02-23T10:44:32;4.50;;;1.35;;
16314;SDS011;8266;52.150;4.768;2024-02-23T10:47:00;3.83;;;1.40;;
16314;SDS011;8266;52.150;4.768;2024-02-23T10:49:29;4.20;;;1.42;;
16314;SDS011;8266;52.150;4.768;2024-02-23T10:51:57;3.90;;;1.10;;
16314;SDS011;8266;52.150;4.768;2024-02-23T10:54:25;3.38;;;1.20;;
16314;SDS011;8266;52.150;4.768;2024-02-23T10:56:53;3.95;;;1.08;;
16314;SDS011;8266;52.150;4.768;2024-02-23T10:59:21;6.20;;;1.50;;
16314;SDS011;8266;52.150;4.768;2024-02-23T11:01:51;5.85;;;1.55;;
16314;SDS011;8266;52.150;4.768;2024-02-23T11:04:19;8.13;;;1.50;;
16314;SDS011;8266;52.150;4.768;2024-02-23T11:06:50;4.07;;;1.40;;
16314;SDS011;8266;52.150;4.768;2024-02-23T11:09:20;3.67;;;1.27;;
16314;SDS011;8266;52.150;4.768;2024-02-23T11:11:52;4.25;;;1.27;;
16314;SDS011;8266;52.150;4.768;2024-02-23T11:14:29;2.88;;;0.85;;
16314;SDS011;8266;52.150;4.768;2024-02-23T11:16:58;5.22;;;1.17;;
16314;SDS011;8266;52.150;4.768;2024-02-23T11:19:34;4.80;;;1.55;;
16314;SDS011;8266;52.150;4.768;2024-02-23T11:22:02;6.40;;;1.33;;
16314;SDS011;8266;52.150;4.768;2024-02-23T11:24:30;2.88;;;1.10;;
16314;SDS011;8266;52.150;4.768;2024-02-23T11:26:58;4.45;;;1.30;;
16314;SDS011;8266;52.150;4.768;2024-02-23T11:29:33;2.95;;;1.13;;
16314;SDS011;8266;52.150;4.768;2024-02-23T11:32:03;3.10;;;0.98;;
16314;SDS011;8266;52.150;4.768;2024-02-23T11:34:38;3.33;;;0.90;;
16314;SDS011;8266;52.150;4.768;2024-02-23T11:37:09;3.13;;;1.05;;
16314;SDS011;8266;52.150;4.768;2024-02-23T11:39:38;3.67;;;1.00;;
16314;SDS011;8266;52.150;4.768;2024-02-23T11:42:05;3.45;;;1.15;;
16314;SDS011;8266;52.150;4.768;2024-02-23T11:44:33;2.95;;;0.98;;
16314;SDS011;8266;52.150;4.768;2024-02-23T11:47:00;3.92;;;1.00;;
16314;SDS011;8266;52.150;4.768;2024-02-23T11:49:30;2.40;;;0.85;;
16314;SDS011;8266;52.150;4.768;2024-02-23T11:51:58;4.03;;;0.90;;
16314;SDS011;8266;52.150;4.768;2024-02-23T11:54:25;4.22;;;1.00;;
16314;SDS011;8266;52.150;4.768;2024-02-23T11:56:52;3.55;;;1.00;;
16314;SDS011;8266;52.150;4.768;2024-02-23T11:59:19;5.15;;;1.30;;
16314;SDS011;8266;52.150;4.768;2024-02-23T12:01:46;2.97;;;1.33;;
16314;SDS011;8266;52.150;4.768;2024-02-23T12:04:15;5.88;;;1.33;;
16314;SDS011;8266;52.150;4.768;2024-02-23T12:06:43;2.47;;;0.75;;
16314;SDS011;8266;52.150;4.768;2024-02-23T12:09:11;3.60;;;0.80;;
16314;SDS011;8266;52.150;4.768;2024-02-23T12:11:40;3.75;;;1.00;;
16314;SDS011;8266;52.150;4.768;2024-02-23T12:14:07;3.20;;;1.20;;
16314;SDS011;8266;52.150;4.768;2024-02-23T12:16:35;5.07;;;0.93;;
16314;SDS011;8266;52.150;4.768;2024-02-23T12:19:02;2.22;;;1.00;;
16314;SDS011;8266;52.150;4.768;2024-02-23T12:21:33;4.22;;;0.93;;
16314;SDS011;8266;52.150;4.768;2024-02-23T12:24:03;3.80;;;0.88;;
16314;SDS011;8266;52.150;4.768;2024-02-23T12:26:31;5.88;;;1.55;;
16314;SDS011;8266;52.150;4.768;2024-02-23T12:29:00;2.78;;;0.90;;
16314;SDS011;8266;52.150;4.768;2024-02-23T12:31:28;3.78;;;1.10;;
16314;SDS011;8266;52.150;4.768;2024-02-23T12:33:56;7.25;;;1.40;;
16314;SDS011;8266;52.150;4.768;2024-02-23T12:36:24;4.07;;;1.30;;
16314;SDS011;8266;52.150;4.768;2024-02-23T12:38:52;3.08;;;0.95;;
16314;SDS011;8266;52.150;4.768;2024-02-23T12:41:20;3.65;;;1.63;;
16314;SDS011;8266;52.150;4.768;2024-02-23T12:43:47;4.82;;;1.15;;
16314;SDS011;8266;52.150;4.768;2024-02-23T12:46:15;2.45;;;1.00;;
16314;SDS011;8266;52.150;4.768;2024-02-23T12:48:42;3.47;;;0.70;;
16314;SDS011;8266;52.150;4.768;2024-02-23T12:51:10;4.60;;;0.90;;
16314;SDS011;8266;52.150;4.768;2024-02-23T12:53:38;12.95;;;1.23;;
16314;SDS011;8266;52.150;4.768;2024-02-23T12:56:08;6.45;;;1.42;;
16314;SDS011;8266;52.150;4.768;2024-02-23T12:58:36;5.60;;;1.17;;
16314;SDS011;8266;52.150;4.768;2024-02-23T13:01:04;3.83;;;1.00;;
16314;SDS011;8266;52.150;4.768;2024-02-23T13:03:32;2.40;;;0.93;;
16314;SDS011;8266;52.150;4.768;2024-02-23T13:05:59;4.32;;;1.05;;
16314;SDS011;8266;52.150;4.768;2024-02-23T13:08:27;4.63;;;1.10;;
16314;SDS011;8266;52.150;4.768;2024-02-23T13:10:56;2.97;;;1.02;;
16314;SDS011;8266;52.150;4.768;2024-02-23T13:13:25;3.35;;;1.17;;
16314;SDS011;8266;52.150;4.768;2024-02-23T13:15:53;3.63;;;1.02;;
16314;SDS011;8266;52.150;4.768;2024-02-23T13:18:22;6.40;;;1.70;;
16314;SDS011;8266;52.150;4.768;2024-02-23T13:20:49;5.53;;;1.23;;
16314;SDS011;8266;52.150;4.768;2024-02-23T13:23:17;2.60;;;1.23;;
16314;SDS011;8266;52.150;4.768;2024-02-23T13:25:44;5.55;;;1.00;;
16314;SDS011;8266;52.150;4.768;2024-02-23T13:28:14;4.10;;;1.33;;
16314;SDS011;8266;52.150;4.768;2024-02-23T13:30:43;2.72;;;1.02;;
16314;SDS011;8266;52.150;4.768;2024-02-23T13:33:11;5.38;;;1.30;;
16314;SDS011;8266;52.150;4.768;2024-02-23T13:35:38;3.95;;;0.90;;
16314;SDS011;8266;52.150;4.768;2024-02-23T13:38:05;2.45;;;1.30;;
16314;SDS011;8266;52.150;4.768;2024-02-23T13:40:32;2.47;;;1.00;;
16314;SDS011;8266;52.150;4.768;2024-02-23T13:43:00;2.55;;;0.85;;
16314;SDS011;8266;52.150;4.768;2024-02-23T13:45:29;2.38;;;0.70;;
16314;SDS011;8266;52.150;4.768;2024-02-23T13:47:58;1.50;;;0.73;;
16314;SDS011;8266;52.150;4.768;2024-02-23T13:50:27;1.48;;;0.63;;
16314;SDS011;8266;52.150;4.768;2024-02-23T13:52:55;2.25;;;1.00;;
16314;SDS011;8266;52.150;4.768;2024-02-23T13:55:22;2.65;;;0.63;;
16314;SDS011;8266;52.150;4.768;2024-02-23T13:57:49;2.63;;;0.65;;
16314;SDS011;8266;52.150;4.768;2024-02-23T14:00:17;2.97;;;0.93;;
16314;SDS011;8266;52.150;4.768;2024-02-23T14:02:45;2.08;;;0.60;;
16314;SDS011;8266;52.150;4.768;2024-02-23T14:05:13;2.35;;;0.80;;
16314;SDS011;8266;52.150;4.768;2024-02-23T14:07:43;1.88;;;0.70;;
16314;SDS011;8266;52.150;4.768;2024-02-23T14:10:10;2.00;;;0.40;;
16314;SDS011;8266;52.150;4.768;2024-02-23T14:12:37;2.83;;;0.68;;
16314;SDS011;8266;52.150;4.768;2024-02-23T14:15:04;2.50;;;0.65;;
16314;SDS011;8266;52.150;4.768;2024-02-23T14:17:32;1.38;;;0.60;;
16314;SDS011;8266;52.150;4.768;2024-02-23T14:20:00;1.20;;;0.40;;
16314;SDS011;8266;52.150;4.768;2024-02-23T14:22:29;1.90;;;0.50;;
16314;SDS011;8266;52.150;4.768;2024-02-23T14:24:57;2.03;;;0.40;;
16314;SDS011;8266;52.150;4.768;2024-02-23T14:27:24;0.93;;;0.30;;
16314;SDS011;8266;52.150;4.768;2024-02-23T14:29:52;0.55;;;0.30;;
16314;SDS011;8266;52.150;4.768;2024-02-23T14:32:19;0.60;;;0.50;;
16314;SDS011;8266;52.150;4.768;2024-02-23T14:34:47;2.33;;;0.43;;
16314;SDS011;8266;52.150;4.768;2024-02-23T14:37:15;1.25;;;0.57;;
16314;SDS011;8266;52.150;4.768;2024-02-23T14:39:43;0.90;;;0.40;;
16314;SDS011;8266;52.150;4.768;2024-02-23T14:42:10;0.95;;;0.40;;
16314;SDS011;8266;52.150;4.768;2024-02-23T14:44:37;1.17;;;0.40;;
16314;SDS011;8266;52.150;4.768;2024-02-23T14:47:05;1.15;;;0.40;;
16314;SDS011;8266;52.150;4.768;2024-02-23T14:49:34;1.13;;;0.60;;
16314;SDS011;8266;52.150;4.768;2024-02-23T14:52:02;1.10;;;0.60;;
16314;SDS011;8266;52.150;4.768;2024-02-23T14:54:29;2.47;;;0.50;;
16314;SDS011;8266;52.150;4.768;2024-02-23T14:56:59;2.42;;;0.63;;
16314;SDS011;8266;52.150;4.768;2024-02-23T14:59:26;3.15;;;0.90;;
16314;SDS011;8266;52.150;4.768;2024-02-23T15:01:53;1.15;;;0.52;;
16314;SDS011;8266;52.150;4.768;2024-02-23T15:04:20;1.00;;;0.60;;